Terminal Aerodrome Forecast
Issued by NWS

Current Version | Previous Version | Text Only | Print | Product List | Glossary On
Versions: 1 2 3 4 5 6 7 8 9 10 11 12 13 14 15 16
000
FTUS45 KRIW 281127
TAFRKS
TAF
KRKS 281127Z 2812/2912 25010KT P6SM SCT060
     FM282100 26012G20KT P6SM VCSH SCT060 BKN080
     FM290200 26010KT P6SM SCT090=

USA.gov is the U.S. government's official web portal to all federal, state and local government web resources and services.